createdAt,value
2022-10-05T00:00:45.658Z,74.63
2022-10-05T00:03:13.415Z,74.75
2022-10-05T00:05:41.779Z,74.96
2022-10-05T00:08:16.877Z,75.29
2022-10-05T00:10:46.387Z,75.34
2022-10-05T00:13:15.111Z,75.56
2022-10-05T00:15:43.748Z,75.30
2022-10-05T00:18:15.344Z,75.27
2022-10-05T00:20:44.508Z,75.40
2022-10-05T00:23:19.760Z,75.73
2022-10-05T00:25:47.873Z,75.81
2022-10-05T00:28:22.942Z,75.46
2022-10-05T00:30:50.782Z,75.32
2022-10-05T00:33:18.581Z,75.77
2022-10-05T00:35:46.365Z,76.19
2022-10-05T00:38:15.487Z,76.08
2022-10-05T00:40:55.523Z,76.60
2022-10-05T00:43:38.427Z,76.94
2022-10-05T00:46:10.900Z,77.04
2022-10-05T00:48:43.329Z,77.32
2022-10-05T00:51:22.784Z,77.18
2022-10-05T00:54:06.729Z,77.07
2022-10-05T00:56:50.040Z,77.02
2022-10-05T00:59:30.824Z,76.95
2022-10-05T01:02:01.742Z,77.17
2022-10-05T01:04:40.162Z,77.05
2022-10-05T01:07:16.968Z,77.15
2022-10-05T01:09:57.023Z,77.22
2022-10-05T01:12:33.274Z,77.09
2022-10-05T01:15:06.348Z,77.27
2022-10-05T01:17:42.332Z,77.19
2022-10-05T01:20:28.326Z,77.55
2022-10-05T01:23:38.771Z,77.41
2022-10-05T01:26:29.764Z,77.64
2022-10-05T01:29:06.388Z,77.73
2022-10-05T01:31:40.850Z,77.58
2022-10-05T01:34:14.631Z,77.65
2022-10-05T01:36:53.214Z,77.65
2022-10-05T01:39:32.459Z,77.53
2022-10-05T01:42:07.419Z,77.82
2022-10-05T01:44:45.388Z,77.82
2022-10-05T01:47:21.149Z,78.09
2022-10-05T01:50:01.180Z,78.21
2022-10-05T01:52:35.176Z,78.57
2022-10-05T01:55:16.713Z,78.47
2022-10-05T01:57:59.022Z,78.42
2022-10-05T02:00:31.870Z,79.21
2022-10-05T02:03:05.980Z,79.20
2022-10-05T02:05:39.726Z,79.27
2022-10-05T02:08:12.415Z,79.29
2022-10-05T02:10:47.334Z,79.04
2022-10-05T02:13:22.411Z,79.14
2022-10-05T02:15:57.964Z,79.22
2022-10-05T02:18:35.454Z,79.17
2022-10-05T02:21:05.297Z,79.15
2022-10-05T02:23:37.500Z,79.30
2022-10-05T02:26:07.499Z,79.06
2022-10-05T02:28:40.897Z,79.80
2022-10-05T02:31:12.347Z,80.05
2022-10-05T02:33:40.410Z,80.18
2022-10-05T02:36:15.078Z,79.97
2022-10-05T02:39:04.824Z,79.91
2022-10-05T02:41:45.895Z,79.91
2022-10-05T02:44:25.155Z,79.77
2022-10-05T02:47:06.272Z,79.99
2022-10-05T02:49:41.877Z,79.80
2022-10-05T02:52:17.597Z,80.02
2022-10-05T02:54:55.221Z,79.94
2022-10-05T02:57:29.420Z,79.90
2022-10-05T03:00:06.919Z,80.38
2022-10-05T03:02:44.026Z,79.85
2022-10-05T03:05:21.360Z,80.08
2022-10-05T03:07:56.816Z,79.73
2022-10-05T03:10:30.421Z,79.69
2022-10-05T03:13:04.927Z,79.64
2022-10-05T03:16:00.014Z,79.72
2022-10-05T03:18:39.833Z,79.73
2022-10-05T03:21:21.174Z,79.54
2022-10-05T03:24:01.462Z,79.79
2022-10-05T03:26:41.819Z,79.76
2022-10-05T03:29:21.960Z,79.71
2022-10-05T03:31:56.268Z,79.55
2022-10-05T03:34:34.672Z,79.82
2022-10-05T03:37:11.613Z,80.04
2022-10-05T03:39:44.783Z,80.07
2022-10-05T03:42:22.106Z,79.94
2022-10-05T03:44:58.050Z,79.53
2022-10-05T03:47:37.038Z,79.61
2022-10-05T03:50:24.215Z,79.91
2022-10-05T03:52:56.897Z,79.76
2022-10-05T03:55:29.519Z,79.32
2022-10-05T03:58:01.214Z,79.48
2022-10-05T04:00:31.829Z,79.61
2022-10-05T04:03:04.503Z,79.54
2022-10-05T04:05:39.277Z,79.61
2022-10-05T04:08:14.376Z,79.38
2022-10-05T04:10:46.510Z,79.49
2022-10-05T04:13:20.113Z,79.29
2022-10-05T04:15:55.869Z,79.51
2022-10-05T04:18:31.009Z,78.95
2022-10-05T04:21:05.813Z,79.30
2022-10-05T04:23:45.715Z,79.29
2022-10-05T04:26:18.862Z,79.01
2022-10-05T04:28:54.164Z,79.01
2022-10-05T04:31:38.270Z,79.27
2022-10-05T04:34:15.717Z,79.12
2022-10-05T04:36:52.162Z,79.07
2022-10-05T04:39:28.098Z,79.15
2022-10-05T04:42:07.533Z,79.33
2022-10-05T04:44:45.934Z,79.14
2022-10-05T04:47:31.734Z,79.11
2022-10-05T04:50:16.578Z,78.92
2022-10-05T04:52:57.043Z,79.16
2022-10-05T04:55:31.452Z,79.38
2022-10-05T04:58:09.928Z,79.24
2022-10-05T05:00:52.114Z,78.90
2022-10-05T05:03:40.708Z,78.87
2022-10-05T05:06:19.702Z,79.09
2022-10-05T05:09:08.718Z,78.89
2022-10-05T05:11:44.172Z,78.86
2022-10-05T05:14:27.992Z,78.10
2022-10-05T05:17:03.533Z,78.16
2022-10-05T05:19:43.121Z,77.80
2022-10-05T05:22:20.096Z,78.02
2022-10-05T05:25:11.094Z,77.90
2022-10-05T05:27:43.942Z,78.03
2022-10-05T05:30:21.560Z,77.74
2022-10-05T05:33:05.217Z,77.64
2022-10-05T05:36:01.330Z,77.45
2022-10-05T05:38:34.453Z,77.48
2022-10-05T05:41:10.476Z,77.20
2022-10-05T05:43:53.220Z,77.11
2022-10-05T05:46:51.299Z,77.22
2022-10-05T05:49:19.306Z,77.12
2022-10-05T05:51:53.267Z,76.87
2022-10-05T05:54:32.511Z,77.14
2022-10-05T05:57:11.132Z,76.62
2022-10-05T05:59:50.563Z,76.72
2022-10-05T06:02:21.503Z,76.62
2022-10-05T06:04:53.449Z,76.25
2022-10-05T06:07:30.144Z,76.22
2022-10-05T06:10:05.829Z,76.28
2022-10-05T06:12:39.645Z,76.26
2022-10-05T06:15:18.565Z,75.87
2022-10-05T06:17:50.155Z,75.89
2022-10-05T06:20:25.170Z,76.04
2022-10-05T06:22:54.355Z,75.93
2022-10-05T06:25:34.663Z,75.57
2022-10-05T06:28:10.670Z,75.29
2022-10-05T06:30:49.696Z,75.29
2022-10-05T06:33:31.955Z,75.19
2022-10-05T06:36:13.759Z,74.78
2022-10-05T06:39:02.907Z,75.09
2022-10-05T06:41:42.580Z,75.07
2022-10-05T06:44:17.209Z,74.63
2022-10-05T06:46:56.660Z,74.33
2022-10-05T06:49:28.273Z,74.41
2022-10-05T06:52:00.905Z,74.56
2022-10-05T06:54:43.289Z,74.39
2022-10-05T06:57:18.375Z,74.28
2022-10-05T06:59:53.255Z,74.39
2022-10-05T07:02:30.405Z,74.30
2022-10-05T07:05:21.240Z,73.95
2022-10-05T07:07:54.649Z,74.05
2022-10-05T07:10:32.337Z,74.03
2022-10-05T07:13:29.745Z,74.15
2022-10-05T07:16:07.039Z,74.31
2022-10-05T07:18:48.066Z,73.80
2022-10-05T07:21:28.312Z,73.91
2022-10-05T07:24:06.494Z,74.22
2022-10-05T07:26:38.370Z,74.12
2022-10-05T07:29:25.818Z,74.20
2022-10-05T07:32:08.616Z,73.70
2022-10-05T07:34:48.021Z,73.71
2022-10-05T07:37:38.545Z,73.71
2022-10-05T07:40:13.475Z,73.78
2022-10-05T07:42:56.480Z,73.71
2022-10-05T07:45:30.417Z,73.93
2022-10-05T07:48:05.243Z,73.58
2022-10-05T07:50:39.663Z,73.52
2022-10-05T07:53:14.932Z,73.53
2022-10-05T07:55:48.139Z,73.14
2022-10-05T07:58:21.554Z,73.08
2022-10-05T08:01:05.861Z,72.82
2022-10-05T08:03:46.291Z,73.08
2022-10-05T08:06:34.689Z,72.93
2022-10-05T08:09:13.845Z,72.71
2022-10-05T08:11:49.496Z,72.43
2022-10-05T08:14:25.662Z,72.20
2022-10-05T08:16:58.586Z,72.04
2022-10-05T08:19:35.576Z,72.16
2022-10-05T08:22:07.317Z,72.12
2022-10-05T08:24:44.643Z,72.26
2022-10-05T08:27:17.739Z,72.01
2022-10-05T08:29:56.426Z,71.85
2022-10-05T08:32:27.413Z,71.74
2022-10-05T08:35:02.603Z,71.49
2022-10-05T08:37:35.462Z,71.52
2022-10-05T08:40:33.270Z,71.19
2022-10-05T08:43:17.162Z,70.96
2022-10-05T08:46:03.810Z,70.75
2022-10-05T08:49:04.425Z,70.76
2022-10-05T08:52:08.677Z,70.70
2022-10-05T08:54:59.642Z,70.77
2022-10-05T08:57:51.957Z,70.65
2022-10-05T09:00:21.968Z,70.27
2022-10-05T09:03:18.886Z,70.47
2022-10-05T09:06:25.787Z,70.32
2022-10-05T09:09:23.157Z,70.31
2022-10-05T09:12:05.870Z,70.32
2022-10-05T09:14:56.635Z,69.75
2022-10-05T09:18:08.607Z,69.67
2022-10-05T09:20:50.294Z,69.40
2022-10-05T09:23:37.068Z,69.46
2022-10-05T09:26:10.419Z,68.82
2022-10-05T09:28:57.478Z,68.78
2022-10-05T09:31:51.607Z,68.78
2022-10-05T09:34:42.927Z,68.49
2022-10-05T09:37:53.419Z,68.14
2022-10-05T09:41:00.951Z,68.24
2022-10-05T09:44:01.366Z,68.02
2022-10-05T09:46:53.473Z,67.60
2022-10-05T09:49:44.451Z,67.87
2022-10-05T09:52:35.999Z,67.58
2022-10-05T09:55:51.720Z,67.40
2022-10-05T09:59:07.686Z,67.46
2022-10-05T10:01:58.120Z,67.16
2022-10-05T10:04:49.162Z,66.74
2022-10-05T10:07:53.232Z,66.80
2022-10-05T10:10:57.322Z,67.29
2022-10-05T10:14:12.983Z,66.94
2022-10-05T10:17:02.800Z,66.61
2022-10-05T10:19:58.374Z,67.01
2022-10-05T10:22:48.998Z,66.77
2022-10-05T10:25:52.232Z,66.75
2022-10-05T10:28:37.665Z,66.67
2022-10-05T10:31:29.991Z,66.25
2022-10-05T10:34:15.049Z,66.16
2022-10-05T10:37:10.941Z,65.68
2022-10-05T10:39:54.639Z,65.81
2022-10-05T10:42:40.871Z,65.93
2022-10-05T10:45:35.574Z,65.88
2022-10-05T10:48:06.092Z,66.11
2022-10-05T10:51:03.141Z,66.25
2022-10-05T10:53:49.111Z,65.49
2022-10-05T10:56:49.493Z,65.02
2022-10-05T10:59:53.984Z,64.90
2022-10-05T11:02:42.816Z,64.62
2022-10-05T11:05:29.889Z,64.05
2022-10-05T11:08:28.547Z,63.17
2022-10-05T11:11:17.733Z,62.56
2022-10-05T11:14:15.172Z,62.92
2022-10-05T11:17:09.585Z,62.76
2022-10-05T11:20:17.585Z,62.09
2022-10-05T11:22:55.927Z,62.53
2022-10-05T11:25:48.798Z,62.11
2022-10-05T11:28:36.345Z,62.50
2022-10-05T11:31:42.541Z,62.60
2022-10-05T11:34:34.925Z,61.70
2022-10-05T11:37:31.840Z,61.97
2022-10-05T11:40:33.264Z,61.75
2022-10-05T11:43:38.043Z,62.29
2022-10-05T11:46:18.255Z,61.39
2022-10-05T11:49:16.938Z,60.65
2022-10-05T11:51:54.325Z,61.34
2022-10-05T11:55:10.438Z,60.92
2022-10-05T11:57:49.150Z,60.88
2022-10-05T12:00:21.100Z,60.50
2022-10-05T12:03:09.356Z,60.53
2022-10-05T12:05:49.905Z,60.62
2022-10-05T12:08:29.089Z,60.79
2022-10-05T12:11:08.866Z,60.61
2022-10-05T12:13:47.456Z,60.19
2022-10-05T12:16:22.114Z,59.84
2022-10-05T12:18:58.193Z,59.95
2022-10-05T12:21:34.883Z,60.47
2022-10-05T12:24:13.680Z,59.86
2022-10-05T12:26:48.433Z,60.07
2022-10-05T12:29:21.635Z,59.94
2022-10-05T12:31:59.839Z,59.58
2022-10-05T12:34:39.289Z,59.62
2022-10-05T12:37:14.930Z,59.84
2022-10-05T12:39:51.602Z,59.21
2022-10-05T12:42:29.701Z,58.63
2022-10-05T12:45:09.893Z,58.75
2022-10-05T12:47:54.409Z,58.22
2022-10-05T12:50:27.246Z,57.76
2022-10-05T12:53:10.488Z,57.46
2022-10-05T12:55:49.788Z,57.41
2022-10-05T12:58:27.797Z,57.23
2022-10-05T13:01:02.365Z,56.85
2022-10-05T13:03:38.479Z,56.94
2022-10-05T13:06:15.367Z,56.84
2022-10-05T13:08:52.413Z,57.12
2022-10-05T13:11:28.535Z,57.32
2022-10-05T13:14:05.203Z,57.25
2022-10-05T13:16:40.663Z,56.99
2022-10-05T13:19:25.548Z,56.41
2022-10-05T13:22:17.222Z,56.22
2022-10-05T13:24:56.724Z,56.17
2022-10-05T13:27:28.779Z,56.29
2022-10-05T13:30:03.059Z,56.54
2022-10-05T13:32:36.337Z,56.68
2022-10-05T13:35:23.222Z,56.08
2022-10-05T13:38:02.732Z,55.87
2022-10-05T13:40:36.651Z,56.19
2022-10-05T13:43:14.467Z,56.02
2022-10-05T13:45:52.666Z,55.51
2022-10-05T13:48:47.328Z,55.35
2022-10-05T13:51:22.444Z,54.86
2022-10-05T13:53:56.032Z,55.09
2022-10-05T13:56:30.105Z,55.24
2022-10-05T13:59:12.363Z,55.54
2022-10-05T14:01:44.961Z,54.35
2022-10-05T14:04:19.751Z,54.23
2022-10-05T14:06:50.212Z,53.91
2022-10-05T14:09:29.776Z,53.57
2022-10-05T14:12:14.519Z,54.19
2022-10-05T14:14:49.053Z,54.05
2022-10-05T14:17:32.110Z,54.21
2022-10-05T14:20:02.935Z,54.39
2022-10-05T14:22:42.973Z,54.14
2022-10-05T14:25:17.083Z,54.27
2022-10-05T14:27:51.735Z,54.11
2022-10-05T14:30:22.122Z,53.51
2022-10-05T14:32:52.511Z,53.80
2022-10-05T14:35:22.169Z,54.10
2022-10-05T14:37:57.224Z,53.83
2022-10-05T14:40:33.709Z,53.71
2022-10-05T14:43:18.259Z,53.64
2022-10-05T14:45:57.388Z,54.05
2022-10-05T14:48:27.982Z,54.37
2022-10-05T14:50:57.920Z,54.86
2022-10-05T14:53:38.102Z,54.97
2022-10-05T14:56:23.776Z,55.29
2022-10-05T14:59:22.164Z,55.36
2022-10-05T15:01:56.497Z,55.72
2022-10-05T15:04:50.073Z,55.52
2022-10-05T15:07:25.480Z,55.86
2022-10-05T15:10:22.551Z,55.21
2022-10-05T15:12:51.962Z,55.01
2022-10-05T15:15:29.245Z,55.42
2022-10-05T15:18:02.263Z,55.42
2022-10-05T15:20:36.950Z,55.78
2022-10-05T15:23:24.841Z,55.66
2022-10-05T15:26:04.122Z,56.06
2022-10-05T15:28:38.557Z,56.58
2022-10-05T15:31:14.494Z,56.91
2022-10-05T15:33:53.751Z,57.36
2022-10-05T15:36:26.827Z,57.37
2022-10-05T15:39:05.943Z,57.52
2022-10-05T15:41:55.278Z,57.86
2022-10-05T15:44:39.799Z,58.05
2022-10-05T15:47:13.158Z,58.07
2022-10-05T15:49:49.537Z,58.42
2022-10-05T15:52:25.574Z,58.59
2022-10-05T15:55:20.863Z,58.83
2022-10-05T15:57:59.540Z,59.01
2022-10-05T16:00:30.171Z,59.20
2022-10-05T16:03:11.169Z,59.25
2022-10-05T16:06:02.729Z,58.81
2022-10-05T16:08:56.280Z,59.08
2022-10-05T16:11:36.946Z,59.03
2022-10-05T16:14:20.766Z,59.22
2022-10-05T16:17:03.368Z,59.50
2022-10-05T16:19:38.098Z,59.43
2022-10-05T16:22:16.980Z,59.38
2022-10-05T16:25:07.341Z,59.32
2022-10-05T16:27:48.346Z,59.22
2022-10-05T16:30:20.830Z,59.36
2022-10-05T16:32:57.830Z,59.39
2022-10-05T16:35:37.456Z,59.65
2022-10-05T16:38:18.699Z,59.83
2022-10-05T16:40:59.709Z,60.42
2022-10-05T16:43:41.463Z,60.69
2022-10-05T16:46:22.274Z,61.00
2022-10-05T16:49:00.180Z,60.87
2022-10-05T16:51:34.379Z,60.95
2022-10-05T16:54:13.278Z,60.69
2022-10-05T16:56:44.523Z,60.88
2022-10-05T16:59:39.498Z,60.83
2022-10-05T17:02:20.597Z,60.84
2022-10-05T17:05:00.778Z,60.98
2022-10-05T17:07:55.753Z,61.39
2022-10-05T17:10:38.904Z,61.33
2022-10-05T17:13:19.671Z,61.46
2022-10-05T17:16:04.003Z,61.57
2022-10-05T17:19:09.188Z,61.73
2022-10-05T17:21:44.459Z,61.65
2022-10-05T17:24:49.592Z,61.20
2022-10-05T17:27:26.859Z,61.29
2022-10-05T17:29:56.488Z,61.17
2022-10-05T17:32:57.281Z,60.83
2022-10-05T17:35:50.848Z,61.08
2022-10-05T17:38:22.473Z,60.56
2022-10-05T17:41:19.044Z,60.62
2022-10-05T17:44:21.751Z,60.27
2022-10-05T17:46:51.640Z,60.38
2022-10-05T17:49:39.184Z,60.16
2022-10-05T17:52:40.996Z,60.69
2022-10-05T17:55:28.244Z,60.60
2022-10-05T17:57:59.762Z,60.76
2022-10-05T18:00:41.929Z,60.72
2022-10-05T18:03:40.717Z,60.80
2022-10-05T18:06:31.923Z,60.80
2022-10-05T18:09:39.150Z,60.84
2022-10-05T18:12:25.656Z,60.89
2022-10-05T18:15:14.247Z,60.97
2022-10-05T18:17:46.393Z,61.00
2022-10-05T18:20:21.662Z,60.82
2022-10-05T18:22:50.470Z,61.10
2022-10-05T18:25:30.169Z,61.27
2022-10-05T18:28:22.432Z,61.12
2022-10-05T18:31:11.132Z,60.97
2022-10-05T18:33:59.778Z,60.88
2022-10-05T18:36:54.239Z,61.03
2022-10-05T18:39:40.145Z,61.12
2022-10-05T18:42:16.547Z,60.89
2022-10-05T18:44:50.575Z,60.88
2022-10-05T18:47:24.214Z,60.90
2022-10-05T18:50:06.069Z,60.95
2022-10-05T18:52:45.664Z,61.04
2022-10-05T18:55:20.143Z,61.06
2022-10-05T18:58:20.461Z,61.22
2022-10-05T19:01:40.289Z,61.27
2022-10-05T19:04:22.248Z,61.36
2022-10-05T19:07:00.559Z,61.46
2022-10-05T19:09:47.025Z,61.27
2022-10-05T19:12:24.695Z,61.40
2022-10-05T19:15:00.183Z,61.63
2022-10-05T19:17:43.642Z,61.53
2022-10-05T19:20:20.646Z,61.79
2022-10-05T19:23:09.396Z,61.91
2022-10-05T19:25:43.479Z,61.82
2022-10-05T19:28:22.608Z,61.92
2022-10-05T19:31:02.483Z,62.10
2022-10-05T19:33:44.804Z,62.10
2022-10-05T19:36:26.226Z,61.89
2022-10-05T19:39:04.524Z,62.15
2022-10-05T19:41:45.442Z,62.06
2022-10-05T19:44:24.113Z,62.19
2022-10-05T19:47:01.117Z,62.30
2022-10-05T19:49:44.391Z,62.29
2022-10-05T19:52:14.744Z,62.54
2022-10-05T19:54:43.577Z,62.57
2022-10-05T19:57:18.074Z,62.74
2022-10-05T19:59:47.785Z,62.89
2022-10-05T20:02:17.083Z,62.50
2022-10-05T20:04:49.516Z,62.69
2022-10-05T20:07:21.556Z,62.67
2022-10-05T20:09:55.015Z,62.67
2022-10-05T20:12:23.705Z,62.65
2022-10-05T20:15:26.343Z,62.73
2022-10-05T20:18:11.822Z,63.11
2022-10-05T20:20:45.779Z,63.49
2022-10-05T20:23:23.750Z,63.36
2022-10-05T20:26:05.953Z,63.63
2022-10-05T20:28:34.082Z,63.98
2022-10-05T20:31:02.085Z,64.09
2022-10-05T20:33:30.367Z,64.20
2022-10-05T20:35:59.512Z,64.35
2022-10-05T20:38:27.624Z,64.44
2022-10-05T20:40:55.552Z,64.65
2022-10-05T20:43:23.358Z,64.58
2022-10-05T20:45:52.315Z,64.57
2022-10-05T20:48:20.130Z,64.56
2022-10-05T20:50:49.053Z,64.73
2022-10-05T20:53:18.167Z,64.74
2022-10-05T20:55:45.994Z,64.99
2022-10-05T20:58:13.673Z,65.23
2022-10-05T21:00:59.144Z,65.27
2022-10-05T21:03:27.024Z,65.54
2022-10-05T21:05:54.750Z,65.78
2022-10-05T21:08:25.129Z,65.78
2022-10-05T21:10:53.098Z,66.21
2022-10-05T21:13:20.893Z,66.42
2022-10-05T21:15:48.694Z,66.27
2022-10-05T21:18:16.758Z,66.41
2022-10-05T21:20:50.526Z,66.50
2022-10-05T21:23:18.242Z,66.88
2022-10-05T21:25:48.343Z,67.12
2022-10-05T21:28:16.395Z,67.34
2022-10-05T21:30:44.242Z,67.39
2022-10-05T21:33:12.093Z,67.35
2022-10-05T21:35:39.784Z,67.65
2022-10-05T21:38:07.522Z,67.71
2022-10-05T21:40:35.315Z,67.14
2022-10-05T21:43:04.672Z,66.24
2022-10-05T21:45:32.612Z,68.16
2022-10-05T21:48:00.409Z,69.28
2022-10-05T21:50:28.410Z,69.62
2022-10-05T21:52:56.148Z,69.51
2022-10-05T21:55:23.945Z,69.53
2022-10-05T21:57:51.732Z,69.33
2022-10-05T22:00:20.910Z,68.97
2022-10-05T22:02:48.654Z,68.81
2022-10-05T22:05:16.594Z,68.91
2022-10-05T22:07:44.545Z,68.89
2022-10-05T22:10:12.440Z,68.98
2022-10-05T22:12:41.528Z,69.11
2022-10-05T22:15:10.506Z,69.49
2022-10-05T22:17:42.176Z,69.80
2022-10-05T22:20:13.237Z,70.11
2022-10-05T22:22:41.027Z,70.58
2022-10-05T22:25:09.381Z,70.74
2022-10-05T22:27:37.308Z,71.05
2022-10-05T22:30:06.021Z,71.10
2022-10-05T22:32:33.731Z,71.20
2022-10-05T22:35:03.758Z,71.53
2022-10-05T22:37:37.661Z,71.69
2022-10-05T22:40:06.380Z,72.94
2022-10-05T22:42:34.313Z,74.92
2022-10-05T22:45:02.055Z,75.95
2022-10-05T22:47:29.878Z,75.83
2022-10-05T22:49:57.595Z,77.37
2022-10-05T22:52:27.226Z,77.60
2022-10-05T22:54:55.079Z,77.40
2022-10-05T22:57:22.853Z,77.24
2022-10-05T22:59:50.555Z,76.78
2022-10-05T23:02:19.832Z,76.52
2022-10-05T23:04:47.778Z,76.54
2022-10-05T23:07:15.508Z,76.31
2022-10-05T23:09:44.867Z,76.93
2022-10-05T23:12:13.606Z,77.20
2022-10-05T23:14:41.595Z,76.59
2022-10-05T23:17:09.310Z,76.92
2022-10-05T23:19:37.022Z,75.83
2022-10-05T23:22:04.759Z,75.40
2022-10-05T23:24:32.465Z,74.83
2022-10-05T23:27:01.719Z,75.29
2022-10-05T23:29:29.512Z,74.96
2022-10-05T23:31:57.210Z,74.83
2022-10-05T23:34:25.662Z,74.99
2022-10-05T23:36:53.350Z,75.23
2022-10-05T23:39:21.046Z,74.54
2022-10-05T23:41:48.712Z,74.54
2022-10-05T23:44:17.833Z,74.43
2022-10-05T23:46:45.556Z,74.28
2022-10-05T23:49:14.891Z,73.92
2022-10-05T23:51:42.827Z,73.73
2022-10-05T23:54:10.566Z,73.37
2022-10-05T23:56:38.306Z,73.35
2022-10-05T23:59:06.029Z,73.27
